sensor_id;sensor_type;location;lat;lon;timestamp;temperature;humidity
7572;DHT22;3827;49.928;8.548;2022-08-18T00:00:45;19.60;99.90
7572;DHT22;3827;49.928;8.548;2022-08-18T00:03:12;19.50;99.90
7572;DHT22;3827;49.928;8.548;2022-08-18T00:05:39;19.50;99.90
7572;DHT22;3827;49.928;8.548;2022-08-18T00:08:06;19.50;99.90
7572;DHT22;3827;49.928;8.548;2022-08-18T00:10:33;19.50;99.90
7572;DHT22;3827;49.928;8.548;2022-08-18T00:13:00;19.50;99.90
7572;DHT22;3827;49.928;8.548;2022-08-18T00:15:27;19.40;99.90
7572;DHT22;3827;49.928;8.548;2022-08-18T00:17:55;19.50;99.90
7572;DHT22;3827;49.928;8.548;2022-08-18T00:20:23;19.50;99.90
7572;DHT22;3827;49.928;8.548;2022-08-18T00:22:50;19.60;99.90
7572;DHT22;3827;49.928;8.548;2022-08-18T00:25:19;19.60;99.90
7572;DHT22;3827;49.928;8.548;2022-08-18T00:27:47;19.60;99.90
7572;DHT22;3827;49.928;8.548;2022-08-18T00:30:17;19.60;99.90
7572;DHT22;3827;49.928;8.548;2022-08-18T00:32:47;19.60;99.90
7572;DHT22;3827;49.928;8.548;2022-08-18T00:35:18;19.50;99.90
7572;DHT22;3827;49.928;8.548;2022-08-18T00:37:46;19.50;99.90
7572;DHT22;3827;49.928;8.548;2022-08-18T00:40:16;19.60;99.90
7572;DHT22;3827;49.928;8.548;2022-08-18T00:42:46;19.60;99.90
7572;DHT22;3827;49.928;8.548;2022-08-18T00:45:17;19.70;99.90
7572;DHT22;3827;49.928;8.548;2022-08-18T00:47:45;19.70;99.90
7572;DHT22;3827;49.928;8.548;2022-08-18T00:50:14;19.80;99.90
7572;DHT22;3827;49.928;8.548;2022-08-18T00:52:50;19.80;99.90
7572;DHT22;3827;49.928;8.548;2022-08-18T00:55:19;19.80;99.90
7572;DHT22;3827;49.928;8.548;2022-08-18T00:57:49;19.80;99.90
7572;DHT22;3827;49.928;8.548;2022-08-18T01:00:17;19.90;99.90
7572;DHT22;3827;49.928;8.548;2022-08-18T01:02:48;19.90;99.90
7572;DHT22;3827;49.928;8.548;2022-08-18T01:05:26;20.00;99.90
7572;DHT22;3827;49.928;8.548;2022-08-18T01:07:56;20.10;99.90
7572;DHT22;3827;49.928;8.548;2022-08-18T01:10:23;20.10;99.90
7572;DHT22;3827;49.928;8.548;2022-08-18T01:12:52;20.10;99.90
7572;DHT22;3827;49.928;8.548;2022-08-18T01:15:21;20.10;99.90
7572;DHT22;3827;49.928;8.548;2022-08-18T01:17:49;20.10;99.90
7572;DHT22;3827;49.928;8.548;2022-08-18T01:20:38;20.20;99.90
7572;DHT22;3827;49.928;8.548;2022-08-18T01:23:26;20.20;99.90
7572;DHT22;3827;49.928;8.548;2022-08-18T01:25:53;20.20;99.90
7572;DHT22;3827;49.928;8.548;2022-08-18T01:28:25;20.20;99.90
7572;DHT22;3827;49.928;8.548;2022-08-18T01:30:54;20.20;99.90
7572;DHT22;3827;49.928;8.548;2022-08-18T01:33:23;20.20;99.90
7572;DHT22;3827;49.928;8.548;2022-08-18T01:35:54;20.20;99.90
7572;DHT22;3827;49.928;8.548;2022-08-18T01:38:21;20.20;99.90
7572;DHT22;3827;49.928;8.548;2022-08-18T01:40:51;20.20;99.90
7572;DHT22;3827;49.928;8.548;2022-08-18T01:43:19;20.20;99.90
7572;DHT22;3827;49.928;8.548;2022-08-18T01:45:46;20.20;99.90
7572;DHT22;3827;49.928;8.548;2022-08-18T01:48:16;20.20;99.90
7572;DHT22;3827;49.928;8.548;2022-08-18T01:50:43;20.10;99.90
7572;DHT22;3827;49.928;8.548;2022-08-18T01:53:12;20.20;99.90
7572;DHT22;3827;49.928;8.548;2022-08-18T01:55:40;20.20;99.90
7572;DHT22;3827;49.928;8.548;2022-08-18T01:58:10;20.20;99.90
7572;DHT22;3827;49.928;8.548;2022-08-18T02:00:37;20.20;99.90
7572;DHT22;3827;49.928;8.548;2022-08-18T02:03:09;20.20;99.90
7572;DHT22;3827;49.928;8.548;2022-08-18T02:05:39;20.20;99.90
7572;DHT22;3827;49.928;8.548;2022-08-18T02:08:07;20.20;99.90
7572;DHT22;3827;49.928;8.548;2022-08-18T02:10:37;20.10;99.90
7572;DHT22;3827;49.928;8.548;2022-08-18T02:13:04;20.10;99.90
7572;DHT22;3827;49.928;8.548;2022-08-18T02:15:33;20.10;99.90
7572;DHT22;3827;49.928;8.548;2022-08-18T02:18:00;20.20;99.90
7572;DHT22;3827;49.928;8.548;2022-08-18T02:20:27;20.10;99.90
7572;DHT22;3827;49.928;8.548;2022-08-18T02:22:54;20.10;99.90
7572;DHT22;3827;49.928;8.548;2022-08-18T02:25:23;20.10;99.90
7572;DHT22;3827;49.928;8.548;2022-08-18T02:27:50;20.10;99.90
7572;DHT22;3827;49.928;8.548;2022-08-18T02:30:17;20.10;99.90
7572;DHT22;3827;49.928;8.548;2022-08-18T02:32:46;20.10;99.90
7572;DHT22;3827;49.928;8.548;2022-08-18T02:35:13;20.10;99.90
7572;DHT22;3827;49.928;8.548;2022-08-18T02:37:40;20.10;99.90
7572;DHT22;3827;49.928;8.548;2022-08-18T02:40:08;20.10;99.90
7572;DHT22;3827;49.928;8.548;2022-08-18T02:42:36;20.10;99.90
7572;DHT22;3827;49.928;8.548;2022-08-18T02:45:04;20.00;99.90
7572;DHT22;3827;49.928;8.548;2022-08-18T02:47:32;20.00;99.90
7572;DHT22;3827;49.928;8.548;2022-08-18T02:50:00;20.00;99.90
7572;DHT22;3827;49.928;8.548;2022-08-18T02:52:27;20.00;99.90
7572;DHT22;3827;49.928;8.548;2022-08-18T02:54:57;20.10;99.90
7572;DHT22;3827;49.928;8.548;2022-08-18T02:57:25;20.00;99.90
7572;DHT22;3827;49.928;8.548;2022-08-18T02:59:52;19.90;99.90
7572;DHT22;3827;49.928;8.548;2022-08-18T03:02:19;20.00;99.90
7572;DHT22;3827;49.928;8.548;2022-08-18T03:04:47;19.90;99.90
7572;DHT22;3827;49.928;8.548;2022-08-18T03:07:17;19.90;99.90
7572;DHT22;3827;49.928;8.548;2022-08-18T03:09:44;19.90;99.90
7572;DHT22;3827;49.928;8.548;2022-08-18T03:12:10;19.90;99.90
7572;DHT22;3827;49.928;8.548;2022-08-18T03:14:37;19.90;99.90
7572;DHT22;3827;49.928;8.548;2022-08-18T03:17:07;19.90;99.90
7572;DHT22;3827;49.928;8.548;2022-08-18T03:19:34;19.90;99.90
7572;DHT22;3827;49.928;8.548;2022-08-18T03:22:01;20.00;99.90
7572;DHT22;3827;49.928;8.548;2022-08-18T03:24:31;20.00;99.90
7572;DHT22;3827;49.928;8.548;2022-08-18T03:26:58;20.00;99.90
7572;DHT22;3827;49.928;8.548;2022-08-18T03:29:26;20.00;99.90
7572;DHT22;3827;49.928;8.548;2022-08-18T03:31:53;20.00;99.90
7572;DHT22;3827;49.928;8.548;2022-08-18T03:34:20;20.00;99.90
7572;DHT22;3827;49.928;8.548;2022-08-18T03:36:47;20.00;99.90
7572;DHT22;3827;49.928;8.548;2022-08-18T03:39:16;20.00;99.90
7572;DHT22;3827;49.928;8.548;2022-08-18T03:41:46;20.00;99.90
7572;DHT22;3827;49.928;8.548;2022-08-18T03:44:13;20.00;99.90
7572;DHT22;3827;49.928;8.548;2022-08-18T03:46:43;20.00;99.90
7572;DHT22;3827;49.928;8.548;2022-08-18T03:49:11;19.90;99.90
7572;DHT22;3827;49.928;8.548;2022-08-18T03:51:40;19.90;99.90
7572;DHT22;3827;49.928;8.548;2022-08-18T03:54:08;19.90;99.90
7572;DHT22;3827;49.928;8.548;2022-08-18T03:56:38;20.00;99.90
7572;DHT22;3827;49.928;8.548;2022-08-18T03:59:09;19.90;99.90
7572;DHT22;3827;49.928;8.548;2022-08-18T04:01:39;19.90;99.90
7572;DHT22;3827;49.928;8.548;2022-08-18T04:04:08;20.00;99.90
7572;DHT22;3827;49.928;8.548;2022-08-18T04:06:37;19.90;99.90
7572;DHT22;3827;49.928;8.548;2022-08-18T04:09:05;19.90;99.90
7572;DHT22;3827;49.928;8.548;2022-08-18T04:11:34;20.50;99.90
7572;DHT22;3827;49.928;8.548;2022-08-18T04:14:03;20.00;99.90
7572;DHT22;3827;49.928;8.548;2022-08-18T04:16:32;20.00;99.90
7572;DHT22;3827;49.928;8.548;2022-08-18T04:18:59;20.00;99.90
7572;DHT22;3827;49.928;8.548;2022-08-18T04:21:28;20.00;99.90
7572;DHT22;3827;49.928;8.548;2022-08-18T04:23:57;19.90;99.90
7572;DHT22;3827;49.928;8.548;2022-08-18T04:26:30;20.00;99.90
7572;DHT22;3827;49.928;8.548;2022-08-18T04:28:57;20.00;99.90
7572;DHT22;3827;49.928;8.548;2022-08-18T04:31:25;20.00;99.90
7572;DHT22;3827;49.928;8.548;2022-08-18T04:33:55;19.90;99.90
7572;DHT22;3827;49.928;8.548;2022-08-18T04:36:23;20.00;99.90
7572;DHT22;3827;49.928;8.548;2022-08-18T04:38:50;20.00;99.90
7572;DHT22;3827;49.928;8.548;2022-08-18T04:41:17;19.90;99.90
7572;DHT22;3827;49.928;8.548;2022-08-18T04:43:44;20.00;99.90
7572;DHT22;3827;49.928;8.548;2022-08-18T04:46:12;19.90;99.90
7572;DHT22;3827;49.928;8.548;2022-08-18T04:48:40;19.90;99.90
7572;DHT22;3827;49.928;8.548;2022-08-18T04:51:11;19.90;99.90
7572;DHT22;3827;49.928;8.548;2022-08-18T04:53:39;19.90;99.90
7572;DHT22;3827;49.928;8.548;2022-08-18T04:56:16;19.90;99.90
7572;DHT22;3827;49.928;8.548;2022-08-18T04:58:46;19.90;99.90
7572;DHT22;3827;49.928;8.548;2022-08-18T05:01:17;19.80;99.90
7572;DHT22;3827;49.928;8.548;2022-08-18T05:03:44;19.80;99.90
7572;DHT22;3827;49.928;8.548;2022-08-18T05:06:13;19.70;99.90
7572;DHT22;3827;49.928;8.548;2022-08-18T05:08:40;19.60;99.90
7572;DHT22;3827;49.928;8.548;2022-08-18T05:11:07;19.50;99.90
7572;DHT22;3827;49.928;8.548;2022-08-18T05:13:34;19.50;99.90
7572;DHT22;3827;49.928;8.548;2022-08-18T05:16:02;19.60;99.90
7572;DHT22;3827;49.928;8.548;2022-08-18T05:18:31;19.40;99.90
7572;DHT22;3827;49.928;8.548;2022-08-18T05:20:58;19.40;99.90
7572;DHT22;3827;49.928;8.548;2022-08-18T05:23:27;19.30;99.90
7572;DHT22;3827;49.928;8.548;2022-08-18T05:25:58;19.30;99.90
7572;DHT22;3827;49.928;8.548;2022-08-18T05:28:26;19.30;99.90
7572;DHT22;3827;49.928;8.548;2022-08-18T05:30:53;19.20;99.90
7572;DHT22;3827;49.928;8.548;2022-08-18T05:33:21;19.20;99.90
7572;DHT22;3827;49.928;8.548;2022-08-18T05:35:50;19.10;99.90
7572;DHT22;3827;49.928;8.548;2022-08-18T05:38:32;19.00;99.90
7572;DHT22;3827;49.928;8.548;2022-08-18T05:41:08;19.00;99.90
7572;DHT22;3827;49.928;8.548;2022-08-18T05:43:37;19.00;99.90
7572;DHT22;3827;49.928;8.548;2022-08-18T05:46:06;19.00;99.90
7572;DHT22;3827;49.928;8.548;2022-08-18T05:48:33;19.00;99.90
7572;DHT22;3827;49.928;8.548;2022-08-18T05:51:11;19.10;99.90
7572;DHT22;3827;49.928;8.548;2022-08-18T05:53:42;19.10;99.90
7572;DHT22;3827;49.928;8.548;2022-08-18T05:56:31;19.20;99.90
7572;DHT22;3827;49.928;8.548;2022-08-18T05:59:15;19.30;99.90
7572;DHT22;3827;49.928;8.548;2022-08-18T06:01:45;19.30;99.90
7572;DHT22;3827;49.928;8.548;2022-08-18T06:04:22;19.40;99.90
7572;DHT22;3827;49.928;8.548;2022-08-18T06:06:53;19.40;99.90
7572;DHT22;3827;49.928;8.548;2022-08-18T06:09:31;19.50;99.90
7572;DHT22;3827;49.928;8.548;2022-08-18T06:12:06;19.50;99.90
7572;DHT22;3827;49.928;8.548;2022-08-18T06:14:37;19.60;99.90
7572;DHT22;3827;49.928;8.548;2022-08-18T06:17:12;19.60;99.90
7572;DHT22;3827;49.928;8.548;2022-08-18T06:19:47;19.60;99.90
7572;DHT22;3827;49.928;8.548;2022-08-18T06:22:27;19.60;99.90
7572;DHT22;3827;49.928;8.548;2022-08-18T06:25:02;19.60;99.90
7572;DHT22;3827;49.928;8.548;2022-08-18T06:27:37;19.70;99.90
7572;DHT22;3827;49.928;8.548;2022-08-18T06:30:11;19.60;99.90
7572;DHT22;3827;49.928;8.548;2022-08-18T06:32:57;19.70;99.90
7572;DHT22;3827;49.928;8.548;2022-08-18T06:35:34;19.70;99.90
7572;DHT22;3827;49.928;8.548;2022-08-18T06:38:25;19.80;99.90
7572;DHT22;3827;49.928;8.548;2022-08-18T06:41:15;19.80;99.90
7572;DHT22;3827;49.928;8.548;2022-08-18T06:43:52;19.90;99.90
7572;DHT22;3827;49.928;8.548;2022-08-18T06:46:28;20.00;99.90
7572;DHT22;3827;49.928;8.548;2022-08-18T06:49:01;20.00;99.90
7572;DHT22;3827;49.928;8.548;2022-08-18T06:51:29;20.10;99.90
7572;DHT22;3827;49.928;8.548;2022-08-18T06:53:58;20.10;99.90
7572;DHT22;3827;49.928;8.548;2022-08-18T06:56:33;20.10;99.90
7572;DHT22;3827;49.928;8.548;2022-08-18T06:59:18;20.10;99.90
7572;DHT22;3827;49.928;8.548;2022-08-18T07:01:49;20.10;99.90
7572;DHT22;3827;49.928;8.548;2022-08-18T07:04:40;20.10;99.90
7572;DHT22;3827;49.928;8.548;2022-08-18T07:07:30;20.20;99.90
7572;DHT22;3827;49.928;8.548;2022-08-18T07:09:58;20.10;99.90
7572;DHT22;3827;49.928;8.548;2022-08-18T07:12:29;20.20;99.90
7572;DHT22;3827;49.928;8.548;2022-08-18T07:14:58;20.20;99.90
7572;DHT22;3827;49.928;8.548;2022-08-18T07:17:27;20.30;99.90
7572;DHT22;3827;49.928;8.548;2022-08-18T07:19:57;20.30;99.90
7572;DHT22;3827;49.928;8.548;2022-08-18T07:22:24;20.30;99.90
7572;DHT22;3827;49.928;8.548;2022-08-18T07:24:52;20.30;99.90
7572;DHT22;3827;49.928;8.548;2022-08-18T07:27:22;20.30;99.90
7572;DHT22;3827;49.928;8.548;2022-08-18T07:30:09;20.40;99.90
7572;DHT22;3827;49.928;8.548;2022-08-18T07:32:42;20.40;99.90
7572;DHT22;3827;49.928;8.548;2022-08-18T07:35:12;20.40;99.90
7572;DHT22;3827;49.928;8.548;2022-08-18T07:37:45;20.50;99.90
7572;DHT22;3827;49.928;8.548;2022-08-18T07:40:21;20.60;99.90
7572;DHT22;3827;49.928;8.548;2022-08-18T07:42:53;20.70;99.90
7572;DHT22;3827;49.928;8.548;2022-08-18T07:45:28;20.70;99.90
7572;DHT22;3827;49.928;8.548;2022-08-18T07:47:59;20.70;99.90
7572;DHT22;3827;49.928;8.548;2022-08-18T07:50:32;20.70;99.90
7572;DHT22;3827;49.928;8.548;2022-08-18T07:53:09;20.60;99.90
7572;DHT22;3827;49.928;8.548;2022-08-18T07:55:39;20.60;99.90
7572;DHT22;3827;49.928;8.548;2022-08-18T07:58:17;20.50;99.90
7572;DHT22;3827;49.928;8.548;2022-08-18T08:00:53;20.40;99.90
7572;DHT22;3827;49.928;8.548;2022-08-18T08:03:29;20.40;99.90
7572;DHT22;3827;49.928;8.548;2022-08-18T08:06:03;20.50;99.90
7572;DHT22;3827;49.928;8.548;2022-08-18T08:08:43;20.30;99.90
7572;DHT22;3827;49.928;8.548;2022-08-18T08:11:22;20.30;99.90
7572;DHT22;3827;49.928;8.548;2022-08-18T08:14:00;20.20;99.90
7572;DHT22;3827;49.928;8.548;2022-08-18T08:16:38;20.10;99.90
7572;DHT22;3827;49.928;8.548;2022-08-18T08:22:12;19.90;99.90
7572;DHT22;3827;49.928;8.548;2022-08-18T08:24:50;20.00;99.90
7572;DHT22;3827;49.928;8.548;2022-08-18T08:27:22;20.00;99.90
7572;DHT22;3827;49.928;8.548;2022-08-18T08:29:58;19.90;99.90
7572;DHT22;3827;49.928;8.548;2022-08-18T08:32:32;20.00;99.90
7572;DHT22;3827;49.928;8.548;2022-08-18T08:35:04;20.10;99.90
7572;DHT22;3827;49.928;8.548;2022-08-18T08:37:37;20.10;99.90
7572;DHT22;3827;49.928;8.548;2022-08-18T08:40:15;20.20;99.90
7572;DHT22;3827;49.928;8.548;2022-08-18T08:42:47;20.20;99.90
7572;DHT22;3827;49.928;8.548;2022-08-18T08:45:20;20.30;99.90
7572;DHT22;3827;49.928;8.548;2022-08-18T08:47:56;20.40;99.90
7572;DHT22;3827;49.928;8.548;2022-08-18T08:50:26;20.50;99.90
7572;DHT22;3827;49.928;8.548;2022-08-18T08:52:57;20.40;99.90
7572;DHT22;3827;49.928;8.548;2022-08-18T08:55:28;20.60;99.90
7572;DHT22;3827;49.928;8.548;2022-08-18T08:58:04;20.70;99.90
7572;DHT22;3827;49.928;8.548;2022-08-18T09:00:34;20.80;99.90
7572;DHT22;3827;49.928;8.548;2022-08-18T09:03:22;20.90;99.90
7572;DHT22;3827;49.928;8.548;2022-08-18T09:05:55;21.00;99.90
7572;DHT22;3827;49.928;8.548;2022-08-18T09:08:45;21.10;99.90
7572;DHT22;3827;49.928;8.548;2022-08-18T09:11:30;21.20;99.90
7572;DHT22;3827;49.928;8.548;2022-08-18T09:14:29;21.30;99.90
7572;DHT22;3827;49.928;8.548;2022-08-18T09:17:15;21.30;99.90
7572;DHT22;3827;49.928;8.548;2022-08-18T09:20:11;21.50;99.90
7572;DHT22;3827;49.928;8.548;2022-08-18T09:22:47;21.50;99.90
7572;DHT22;3827;49.928;8.548;2022-08-18T09:25:31;21.40;99.90
7572;DHT22;3827;49.928;8.548;2022-08-18T09:28:10;21.50;99.90
7572;DHT22;3827;49.928;8.548;2022-08-18T09:30:44;21.70;99.90
7572;DHT22;3827;49.928;8.548;2022-08-18T09:33:26;21.90;99.90
7572;DHT22;3827;49.928;8.548;2022-08-18T09:36:16;21.90;99.90
7572;DHT22;3827;49.928;8.548;2022-08-18T09:38:50;22.20;99.90
7572;DHT22;3827;49.928;8.548;2022-08-18T09:41:43;22.20;99.90
7572;DHT22;3827;49.928;8.548;2022-08-18T09:44:14;22.20;99.90
7572;DHT22;3827;49.928;8.548;2022-08-18T09:47:01;22.10;99.90
7572;DHT22;3827;49.928;8.548;2022-08-18T09:49:49;21.80;99.90
7572;DHT22;3827;49.928;8.548;2022-08-18T09:58:51;22.00;99.90
7572;DHT22;3827;49.928;8.548;2022-08-18T10:01:37;22.10;99.90
7572;DHT22;3827;49.928;8.548;2022-08-18T10:04:29;22.00;99.90
7572;DHT22;3827;49.928;8.548;2022-08-18T10:07:19;22.10;99.90
7572;DHT22;3827;49.928;8.548;2022-08-18T10:09:56;22.20;99.90
7572;DHT22;3827;49.928;8.548;2022-08-18T10:13:01;22.40;99.90
7572;DHT22;3827;49.928;8.548;2022-08-18T10:15:48;22.50;99.90
7572;DHT22;3827;49.928;8.548;2022-08-18T10:18:35;22.50;99.90
7572;DHT22;3827;49.928;8.548;2022-08-18T10:21:10;22.50;91.60
7572;DHT22;3827;49.928;8.548;2022-08-18T10:23:46;22.50;99.90
7572;DHT22;3827;49.928;8.548;2022-08-18T10:29:59;22.40;99.90
7572;DHT22;3827;49.928;8.548;2022-08-18T10:32:39;22.50;99.90
7572;DHT22;3827;49.928;8.548;2022-08-18T10:38:37;22.60;99.90
7572;DHT22;3827;49.928;8.548;2022-08-18T10:41:12;22.80;1.00
7572;DHT22;3827;49.928;8.548;2022-08-18T10:43:47;22.90;99.90
7572;DHT22;3827;49.928;8.548;2022-08-18T10:46:16;23.20;99.90
7572;DHT22;3827;49.928;8.548;2022-08-18T10:49:00;23.40;99.90
7572;DHT22;3827;49.928;8.548;2022-08-18T10:51:40;23.70;1.00
7572;DHT22;3827;49.928;8.548;2022-08-18T10:54:15;24.00;99.90
7572;DHT22;3827;49.928;8.548;2022-08-18T10:56:48;24.50;99.90
7572;DHT22;3827;49.928;8.548;2022-08-18T10:59:21;24.70;99.90
7572;DHT22;3827;49.928;8.548;2022-08-18T11:02:00;24.90;99.90
7572;DHT22;3827;49.928;8.548;2022-08-18T11:04:36;25.20;99.90
7572;DHT22;3827;49.928;8.548;2022-08-18T11:07:07;25.50;99.90
7572;DHT22;3827;49.928;8.548;2022-08-18T11:09:36;25.60;99.90
7572;DHT22;3827;49.928;8.548;2022-08-18T11:12:04;25.80;99.90
7572;DHT22;3827;49.928;8.548;2022-08-18T11:15:00;25.30;99.90
7572;DHT22;3827;49.928;8.548;2022-08-18T11:17:48;25.60;99.90
7572;DHT22;3827;49.928;8.548;2022-08-18T11:20:21;25.80;99.90
7572;DHT22;3827;49.928;8.548;2022-08-18T11:22:51;26.10;99.90
7572;DHT22;3827;49.928;8.548;2022-08-18T11:25:24;26.10;99.90
7572;DHT22;3827;49.928;8.548;2022-08-18T11:27:51;25.80;1.00
7572;DHT22;3827;49.928;8.548;2022-08-18T11:30:19;26.00;1.00
7572;DHT22;3827;49.928;8.548;2022-08-18T11:32:48;26.00;99.90
7572;DHT22;3827;49.928;8.548;2022-08-18T11:35:20;26.30;1.00
7572;DHT22;3827;49.928;8.548;2022-08-18T11:37:54;25.90;95.90
7572;DHT22;3827;49.928;8.548;2022-08-18T11:40:33;26.20;99.90
7572;DHT22;3827;49.928;8.548;2022-08-18T11:43:06;25.70;99.90
7572;DHT22;3827;49.928;8.548;2022-08-18T11:45:50;25.70;99.90
7572;DHT22;3827;49.928;8.548;2022-08-18T11:48:21;25.50;99.90
7572;DHT22;3827;49.928;8.548;2022-08-18T11:51:01;25.60;1.00
7572;DHT22;3827;49.928;8.548;2022-08-18T11:53:38;25.50;7.50
7572;DHT22;3827;49.928;8.548;2022-08-18T11:56:22;24.80;1.00
7572;DHT22;3827;49.928;8.548;2022-08-18T11:58:52;25.50;99.90
7572;DHT22;3827;49.928;8.548;2022-08-18T12:01:35;25.90;1.00
7572;DHT22;3827;49.928;8.548;2022-08-18T12:04:15;26.40;99.90
7572;DHT22;3827;49.928;8.548;2022-08-18T12:07:00;27.10;99.90
7572;DHT22;3827;49.928;8.548;2022-08-18T12:09:34;27.10;99.90
7572;DHT22;3827;49.928;8.548;2022-08-18T12:12:04;26.40;99.90
7572;DHT22;3827;49.928;8.548;2022-08-18T12:14:42;26.60;99.90
7572;DHT22;3827;49.928;8.548;2022-08-18T12:17:16;27.00;99.90
7572;DHT22;3827;49.928;8.548;2022-08-18T12:19:43;26.70;99.90
7572;DHT22;3827;49.928;8.548;2022-08-18T12:22:16;27.00;99.90
7572;DHT22;3827;49.928;8.548;2022-08-18T12:24:43;27.20;99.90
7572;DHT22;3827;49.928;8.548;2022-08-18T12:27:12;26.70;99.90
7572;DHT22;3827;49.928;8.548;2022-08-18T12:29:40;27.00;99.90
7572;DHT22;3827;49.928;8.548;2022-08-18T12:32:07;26.50;99.90
7572;DHT22;3827;49.928;8.548;2022-08-18T12:34:34;26.50;99.90
7572;DHT22;3827;49.928;8.548;2022-08-18T12:37:02;27.60;99.90
7572;DHT22;3827;49.928;8.548;2022-08-18T12:39:30;28.20;99.90
7572;DHT22;3827;49.928;8.548;2022-08-18T12:41:57;28.60;99.90
7572;DHT22;3827;49.928;8.548;2022-08-18T12:44:24;28.80;99.90
7572;DHT22;3827;49.928;8.548;2022-08-18T12:46:51;28.20;99.90
7572;DHT22;3827;49.928;8.548;2022-08-18T12:51:50;28.10;99.90
7572;DHT22;3827;49.928;8.548;2022-08-18T12:54:19;27.40;99.90
7572;DHT22;3827;49.928;8.548;2022-08-18T12:56:50;27.00;99.90
7572;DHT22;3827;49.928;8.548;2022-08-18T12:59:18;27.40;99.90
7572;DHT22;3827;49.928;8.548;2022-08-18T13:01:45;27.40;99.90
7572;DHT22;3827;49.928;8.548;2022-08-18T13:04:12;27.50;99.90
7572;DHT22;3827;49.928;8.548;2022-08-18T13:06:46;27.30;99.90
7572;DHT22;3827;49.928;8.548;2022-08-18T13:09:14;26.90;99.90
7572;DHT22;3827;49.928;8.548;2022-08-18T13:11:41;27.40;99.90
7572;DHT22;3827;49.928;8.548;2022-08-18T13:14:09;28.00;99.90
7572;DHT22;3827;49.928;8.548;2022-08-18T13:16:39;28.80;99.90
7572;DHT22;3827;49.928;8.548;2022-08-18T13:19:07;28.90;99.90
7572;DHT22;3827;49.928;8.548;2022-08-18T13:21:34;28.80;99.90
7572;DHT22;3827;49.928;8.548;2022-08-18T13:24:01;28.90;99.90
7572;DHT22;3827;49.928;8.548;2022-08-18T13:26:31;29.00;99.90
7572;DHT22;3827;49.928;8.548;2022-08-18T13:28:59;29.70;99.90
7572;DHT22;3827;49.928;8.548;2022-08-18T13:31:27;29.90;99.90
7572;DHT22;3827;49.928;8.548;2022-08-18T13:33:54;29.50;99.90
7572;DHT22;3827;49.928;8.548;2022-08-18T13:36:22;29.60;99.90
7572;DHT22;3827;49.928;8.548;2022-08-18T13:38:49;29.50;99.90
7572;DHT22;3827;49.928;8.548;2022-08-18T13:41:20;29.30;99.90
7572;DHT22;3827;49.928;8.548;2022-08-18T13:43:48;29.10;99.90
7572;DHT22;3827;49.928;8.548;2022-08-18T13:46:17;29.20;99.90
7572;DHT22;3827;49.928;8.548;2022-08-18T13:48:45;29.10;99.90
7572;DHT22;3827;49.928;8.548;2022-08-18T13:51:17;29.00;99.90
7572;DHT22;3827;49.928;8.548;2022-08-18T13:53:45;28.90;99.90
7572;DHT22;3827;49.928;8.548;2022-08-18T13:56:12;28.60;99.90
7572;DHT22;3827;49.928;8.548;2022-08-18T13:58:38;28.60;99.90
7572;DHT22;3827;49.928;8.548;2022-08-18T14:01:06;28.40;99.90
7572;DHT22;3827;49.928;8.548;2022-08-18T14:03:34;27.90;99.90
7572;DHT22;3827;49.928;8.548;2022-08-18T14:06:02;28.00;99.90
7572;DHT22;3827;49.928;8.548;2022-08-18T14:08:30;28.10;99.90
7572;DHT22;3827;49.928;8.548;2022-08-18T14:10:58;28.60;99.90
7572;DHT22;3827;49.928;8.548;2022-08-18T14:13:27;28.80;99.90
7572;DHT22;3827;49.928;8.548;2022-08-18T14:15:56;28.90;99.90
7572;DHT22;3827;49.928;8.548;2022-08-18T14:18:24;29.30;99.90
7572;DHT22;3827;49.928;8.548;2022-08-18T14:20:51;29.60;99.90
7572;DHT22;3827;49.928;8.548;2022-08-18T14:23:37;29.60;99.90
7572;DHT22;3827;49.928;8.548;2022-08-18T14:26:21;29.40;99.90
7572;DHT22;3827;49.928;8.548;2022-08-18T14:29:05;30.20;99.90
7572;DHT22;3827;49.928;8.548;2022-08-18T14:31:34;31.00;99.90
7572;DHT22;3827;49.928;8.548;2022-08-18T14:34:00;31.30;99.90
7572;DHT22;3827;49.928;8.548;2022-08-18T14:36:27;31.20;99.90
7572;DHT22;3827;49.928;8.548;2022-08-18T14:38:56;30.90;99.90
7572;DHT22;3827;49.928;8.548;2022-08-18T14:41:23;30.50;99.90
7572;DHT22;3827;49.928;8.548;2022-08-18T14:43:50;29.70;99.90
7572;DHT22;3827;49.928;8.548;2022-08-18T14:46:17;29.60;99.90
7572;DHT22;3827;49.928;8.548;2022-08-18T14:48:45;29.80;99.90
7572;DHT22;3827;49.928;8.548;2022-08-18T14:51:12;29.80;99.90
7572;DHT22;3827;49.928;8.548;2022-08-18T14:53:39;29.90;99.90
7572;DHT22;3827;49.928;8.548;2022-08-18T14:56:07;30.10;99.90
7572;DHT22;3827;49.928;8.548;2022-08-18T14:58:37;29.80;99.90
7572;DHT22;3827;49.928;8.548;2022-08-18T15:01:08;29.20;99.90
7572;DHT22;3827;49.928;8.548;2022-08-18T15:03:37;29.30;99.90
7572;DHT22;3827;49.928;8.548;2022-08-18T15:06:05;28.60;99.90
7572;DHT22;3827;49.928;8.548;2022-08-18T15:08:34;28.60;99.90
7572;DHT22;3827;49.928;8.548;2022-08-18T15:11:01;29.10;99.90
7572;DHT22;3827;49.928;8.548;2022-08-18T15:13:32;29.40;99.90
7572;DHT22;3827;49.928;8.548;2022-08-18T15:15:59;28.90;99.90
7572;DHT22;3827;49.928;8.548;2022-08-18T15:18:26;28.80;99.90
7572;DHT22;3827;49.928;8.548;2022-08-18T15:20:53;28.50;99.90
7572;DHT22;3827;49.928;8.548;2022-08-18T15:23:37;28.80;99.90
7572;DHT22;3827;49.928;8.548;2022-08-18T15:26:27;28.30;99.90
7572;DHT22;3827;49.928;8.548;2022-08-18T15:28:56;28.30;99.90
7572;DHT22;3827;49.928;8.548;2022-08-18T15:31:24;28.60;99.90
7572;DHT22;3827;49.928;8.548;2022-08-18T15:33:52;28.50;99.90
7572;DHT22;3827;49.928;8.548;2022-08-18T15:36:19;28.50;99.90
7572;DHT22;3827;49.928;8.548;2022-08-18T15:38:48;28.20;99.90
7572;DHT22;3827;49.928;8.548;2022-08-18T15:41:27;28.00;99.90
7572;DHT22;3827;49.928;8.548;2022-08-18T15:43:56;27.50;99.90
7572;DHT22;3827;49.928;8.548;2022-08-18T15:46:23;27.40;99.90
7572;DHT22;3827;49.928;8.548;2022-08-18T15:48:50;27.30;99.90
7572;DHT22;3827;49.928;8.548;2022-08-18T15:51:17;27.20;99.90
7572;DHT22;3827;49.928;8.548;2022-08-18T15:53:44;27.30;99.90
7572;DHT22;3827;49.928;8.548;2022-08-18T15:56:13;27.30;99.90
7572;DHT22;3827;49.928;8.548;2022-08-18T15:58:40;27.70;99.90
7572;DHT22;3827;49.928;8.548;2022-08-18T16:01:09;27.70;99.90
7572;DHT22;3827;49.928;8.548;2022-08-18T16:03:37;27.90;99.90
7572;DHT22;3827;49.928;8.548;2022-08-18T16:06:05;28.00;99.90
7572;DHT22;3827;49.928;8.548;2022-08-18T16:08:32;27.90;99.90
7572;DHT22;3827;49.928;8.548;2022-08-18T16:11:06;27.90;99.90
7572;DHT22;3827;49.928;8.548;2022-08-18T16:13:33;27.80;99.90
7572;DHT22;3827;49.928;8.548;2022-08-18T16:16:09;27.60;99.90
7572;DHT22;3827;49.928;8.548;2022-08-18T16:18:36;27.50;99.90
7572;DHT22;3827;49.928;8.548;2022-08-18T16:21:04;27.40;99.90
7572;DHT22;3827;49.928;8.548;2022-08-18T16:23:32;27.20;99.90
7572;DHT22;3827;49.928;8.548;2022-08-18T16:26:00;26.80;99.90
7572;DHT22;3827;49.928;8.548;2022-08-18T16:28:27;26.60;99.90
7572;DHT22;3827;49.928;8.548;2022-08-18T16:30:54;26.50;99.90
7572;DHT22;3827;49.928;8.548;2022-08-18T16:33:23;26.40;99.90
7572;DHT22;3827;49.928;8.548;2022-08-18T16:35:50;26.20;99.90
7572;DHT22;3827;49.928;8.548;2022-08-18T16:38:18;26.30;99.90
7572;DHT22;3827;49.928;8.548;2022-08-18T16:40:45;26.20;99.90
7572;DHT22;3827;49.928;8.548;2022-08-18T16:43:12;26.10;99.90
7572;DHT22;3827;49.928;8.548;2022-08-18T16:45:40;26.10;99.90
7572;DHT22;3827;49.928;8.548;2022-08-18T16:48:07;26.00;99.90
7572;DHT22;3827;49.928;8.548;2022-08-18T16:50:36;25.70;99.90